createdAt,value
2023-03-21T00:01:50.645Z,100.00
2023-03-21T00:04:19.278Z,100.00
2023-03-21T00:06:46.638Z,100.00
2023-03-21T00:09:13.969Z,100.00
2023-03-21T00:11:41.507Z,99.93
2023-03-21T00:14:14.327Z,99.25
2023-03-21T00:16:45.620Z,98.77
2023-03-21T00:19:14.458Z,98.78
2023-03-21T00:22:03.301Z,99.22
2023-03-21T00:24:31.336Z,99.51
2023-03-21T00:27:12.482Z,99.23
2023-03-21T00:29:45.933Z,98.03
2023-03-21T00:32:13.556Z,98.65
2023-03-21T00:34:57.087Z,99.64
2023-03-21T00:37:29.410Z,98.74
2023-03-21T00:39:56.750Z,98.50
2023-03-21T00:42:24.113Z,97.73
2023-03-21T00:44:51.413Z,97.81
2023-03-21T00:47:18.753Z,99.02
2023-03-21T00:49:46.071Z,99.30
2023-03-21T00:52:18.582Z,99.71
2023-03-21T00:54:53.261Z,99.99
2023-03-21T00:57:29.370Z,100.00
2023-03-21T00:59:59.802Z,100.00
2023-03-21T01:02:27.246Z,100.00
2023-03-21T01:04:54.601Z,99.72
2023-03-21T01:07:22.023Z,98.89
2023-03-21T01:09:50.825Z,99.17
2023-03-21T01:12:19.431Z,98.12
2023-03-21T01:14:46.690Z,98.93
2023-03-21T01:17:13.956Z,98.67
2023-03-21T01:19:51.494Z,98.85
2023-03-21T01:22:19.306Z,98.40
2023-03-21T01:24:55.156Z,98.06
2023-03-21T01:27:25.775Z,98.43
2023-03-21T01:29:53.043Z,97.72
2023-03-21T01:32:20.324Z,98.83
2023-03-21T01:34:47.620Z,99.23
2023-03-21T01:37:17.665Z,99.78
2023-03-21T01:39:44.927Z,99.55
2023-03-21T01:42:14.087Z,99.49
2023-03-21T01:44:54.730Z,98.34
2023-03-21T01:47:22.615Z,97.94
2023-03-21T01:49:52.579Z,98.21
2023-03-21T01:52:35.797Z,97.99
2023-03-21T01:55:05.427Z,97.91
2023-03-21T01:57:42.401Z,96.82
2023-03-21T02:00:15.150Z,96.70
2023-03-21T02:02:58.057Z,95.28
2023-03-21T02:05:34.314Z,95.48
2023-03-21T02:08:01.890Z,95.74
2023-03-21T02:10:30.898Z,96.57
2023-03-21T02:13:09.464Z,97.12
2023-03-21T02:15:39.158Z,97.23
2023-03-21T02:18:11.262Z,96.77
2023-03-21T02:20:56.598Z,96.77
2023-03-21T02:23:48.473Z,95.87
2023-03-21T02:26:28.474Z,96.15
2023-03-21T02:29:03.885Z,94.31
2023-03-21T02:31:42.116Z,93.69
2023-03-21T02:34:28.237Z,92.75
2023-03-21T02:37:05.696Z,92.80
2023-03-21T02:39:41.171Z,91.19
2023-03-21T02:42:10.060Z,91.71
2023-03-21T02:44:42.828Z,91.79
2023-03-21T02:47:12.775Z,91.75
2023-03-21T02:49:43.463Z,92.88
2023-03-21T02:52:25.500Z,94.56
2023-03-21T02:55:00.980Z,93.25
2023-03-21T02:57:40.157Z,93.10
2023-03-21T03:00:16.547Z,90.77
2023-03-21T03:02:44.127Z,89.91
2023-03-21T03:05:21.364Z,90.59
2023-03-21T03:07:57.515Z,89.72
2023-03-21T03:10:32.416Z,88.72
2023-03-21T03:13:06.270Z,88.98
2023-03-21T03:15:38.507Z,89.19
2023-03-21T03:18:10.265Z,90.49
2023-03-21T03:20:45.328Z,91.08
2023-03-21T03:23:20.326Z,90.72
2023-03-21T03:25:50.213Z,91.01
2023-03-21T03:28:19.050Z,90.50
2023-03-21T03:31:05.140Z,91.11
2023-03-21T03:33:37.065Z,91.43
2023-03-21T03:36:06.916Z,91.67
2023-03-21T03:38:37.812Z,92.66
2023-03-21T03:41:08.616Z,92.58
2023-03-21T03:43:40.482Z,92.71
2023-03-21T03:46:12.257Z,92.17
2023-03-21T03:48:46.401Z,92.71
2023-03-21T03:51:16.721Z,92.45
2023-03-21T03:53:46.971Z,92.42
2023-03-21T03:56:14.711Z,92.49
2023-03-21T03:58:45.781Z,92.50
2023-03-21T04:01:13.989Z,92.89
2023-03-21T04:03:49.877Z,92.48
2023-03-21T04:06:18.582Z,93.20
2023-03-21T04:08:47.186Z,92.69
2023-03-21T04:11:14.768Z,93.21
2023-03-21T04:13:42.116Z,94.26
2023-03-21T04:16:10.135Z,94.60
2023-03-21T04:18:39.063Z,95.08
2023-03-21T04:21:08.228Z,94.96
2023-03-21T04:23:35.752Z,94.75
2023-03-21T04:26:05.089Z,94.59
2023-03-21T04:28:33.392Z,94.93
2023-03-21T04:31:06.903Z,95.32
2023-03-21T04:33:38.477Z,94.83
2023-03-21T04:36:06.593Z,94.57
2023-03-21T04:38:33.960Z,94.24
2023-03-21T04:41:02.066Z,94.17
2023-03-21T04:43:30.900Z,94.90
2023-03-21T04:45:58.224Z,94.90
2023-03-21T04:48:26.106Z,95.25
2023-03-21T04:50:53.427Z,94.95
2023-03-21T04:53:21.120Z,95.06
2023-03-21T04:55:51.032Z,95.39
2023-03-21T04:58:20.260Z,95.28
2023-03-21T05:00:49.378Z,95.11
2023-03-21T05:03:19.713Z,94.83
2023-03-21T05:05:47.646Z,94.84
2023-03-21T05:08:15.598Z,94.79
2023-03-21T05:10:43.246Z,95.18
2023-03-21T05:13:10.792Z,95.29
2023-03-21T05:15:38.842Z,95.55
2023-03-21T05:18:11.654Z,95.78
2023-03-21T05:20:42.530Z,95.24
2023-03-21T05:23:10.815Z,94.53
2023-03-21T05:25:38.518Z,94.75
2023-03-21T05:28:06.081Z,94.99
2023-03-21T05:30:33.544Z,94.81
2023-03-21T05:33:01.156Z,94.58
2023-03-21T05:35:29.812Z,94.28
2023-03-21T05:37:57.259Z,94.51
2023-03-21T05:40:24.541Z,92.63
2023-03-21T05:42:51.819Z,91.70
2023-03-21T05:45:19.349Z,91.88
2023-03-21T05:47:46.699Z,91.32
2023-03-21T05:50:14.388Z,91.27
2023-03-21T05:52:43.012Z,90.23
2023-03-21T05:55:10.531Z,90.27
2023-03-21T05:57:40.754Z,90.34
2023-03-21T06:00:09.411Z,88.79
2023-03-21T06:02:36.785Z,88.43
2023-03-21T06:05:04.270Z,89.39
2023-03-21T06:07:31.548Z,89.64
2023-03-21T06:10:00.442Z,89.74
2023-03-21T06:12:27.866Z,89.69
2023-03-21T06:14:55.207Z,89.27
2023-03-21T06:17:22.473Z,89.14
2023-03-21T06:19:49.745Z,87.55
2023-03-21T06:22:17.197Z,88.41
2023-03-21T06:24:44.474Z,88.27
2023-03-21T06:27:13.055Z,87.32
2023-03-21T06:29:41.196Z,86.92
2023-03-21T06:32:08.493Z,86.76
2023-03-21T06:34:37.030Z,86.11
2023-03-21T06:37:05.755Z,84.71
2023-03-21T06:39:33.723Z,85.80
2023-03-21T06:42:01.148Z,86.98
2023-03-21T06:44:30.183Z,86.70
2023-03-21T06:46:57.477Z,87.08
2023-03-21T06:49:25.951Z,87.07
2023-03-21T06:51:53.248Z,87.43
2023-03-21T06:54:20.983Z,87.52
2023-03-21T06:56:48.358Z,87.25
2023-03-21T06:59:15.702Z,86.39
2023-03-21T07:01:44.411Z,86.37
2023-03-21T07:04:11.823Z,85.76
2023-03-21T07:06:39.181Z,85.97
2023-03-21T07:09:07.097Z,86.24
2023-03-21T07:11:34.398Z,85.57
2023-03-21T07:14:01.657Z,84.61
2023-03-21T07:16:28.945Z,85.56
2023-03-21T07:18:57.650Z,84.46
2023-03-21T07:21:24.955Z,84.54
2023-03-21T07:23:52.259Z,84.23
2023-03-21T07:26:19.520Z,84.52
2023-03-21T07:28:46.784Z,84.24
2023-03-21T07:31:15.044Z,82.79
2023-03-21T07:33:42.391Z,83.76
2023-03-21T07:36:13.380Z,84.02
2023-03-21T07:38:41.161Z,84.31
2023-03-21T07:41:08.592Z,84.66
2023-03-21T07:43:37.226Z,85.08
2023-03-21T07:46:06.862Z,86.33
2023-03-21T07:48:34.282Z,85.68
2023-03-21T07:51:02.330Z,86.54
2023-03-21T07:53:31.077Z,85.42
2023-03-21T07:55:58.365Z,86.33
2023-03-21T07:58:26.240Z,86.02
2023-03-21T08:00:53.877Z,85.64
2023-03-21T08:03:21.244Z,83.41
2023-03-21T08:05:48.564Z,83.95
2023-03-21T08:08:15.831Z,82.96
2023-03-21T08:10:44.729Z,83.46
2023-03-21T08:13:13.755Z,82.48
2023-03-21T08:15:42.192Z,80.56
2023-03-21T08:18:09.950Z,79.32
2023-03-21T08:20:37.217Z,79.00
2023-03-21T08:23:04.702Z,78.60
2023-03-21T08:25:32.109Z,78.55
2023-03-21T08:28:00.761Z,77.65
2023-03-21T08:30:29.108Z,75.82
2023-03-21T08:33:01.394Z,74.83
2023-03-21T08:35:29.655Z,75.59
2023-03-21T08:37:57.218Z,75.90
2023-03-21T08:40:24.590Z,76.50
2023-03-21T08:42:52.174Z,76.44
2023-03-21T08:45:20.932Z,77.42
2023-03-21T08:47:48.367Z,75.92
2023-03-21T08:50:17.328Z,76.20
2023-03-21T08:52:44.805Z,75.72
2023-03-21T08:55:12.800Z,77.96
2023-03-21T08:57:40.154Z,74.58
2023-03-21T09:00:12.168Z,74.78
2023-03-21T09:02:41.187Z,73.73
2023-03-21T09:05:10.170Z,71.98
2023-03-21T09:07:37.529Z,72.86
2023-03-21T09:10:21.871Z,73.98
2023-03-21T09:12:50.014Z,73.26
2023-03-21T09:15:18.487Z,72.93
2023-03-21T09:17:50.037Z,70.37
2023-03-21T09:20:18.788Z,70.77
2023-03-21T09:22:46.642Z,72.20
2023-03-21T09:25:13.989Z,69.81
2023-03-21T09:27:42.210Z,68.23
2023-03-21T09:30:10.586Z,67.85
2023-03-21T09:32:37.940Z,68.09
2023-03-21T09:35:07.870Z,67.96
2023-03-21T09:37:38.289Z,68.79
2023-03-21T09:40:07.946Z,66.71
2023-03-21T09:42:38.475Z,66.15
2023-03-21T09:45:11.358Z,68.72
2023-03-21T09:47:45.284Z,67.97
2023-03-21T09:50:17.142Z,69.36
2023-03-21T09:52:48.207Z,67.04
2023-03-21T09:55:19.931Z,68.82
2023-03-21T09:57:48.562Z,69.89
2023-03-21T10:00:20.592Z,67.24
2023-03-21T10:02:51.778Z,67.52
2023-03-21T10:05:21.696Z,67.41
2023-03-21T10:07:53.677Z,66.41
2023-03-21T10:10:23.631Z,65.65
2023-03-21T10:12:52.933Z,66.52
2023-03-21T10:15:21.383Z,65.31
2023-03-21T10:17:52.882Z,66.76
2023-03-21T10:20:23.186Z,66.44
2023-03-21T10:22:51.710Z,65.95
2023-03-21T10:25:20.749Z,66.61
2023-03-21T10:27:49.485Z,68.40
2023-03-21T10:30:24.263Z,67.46
2023-03-21T10:32:52.279Z,67.59
2023-03-21T10:35:20.121Z,67.43
2023-03-21T10:37:48.949Z,67.45
2023-03-21T10:40:17.478Z,66.26
2023-03-21T10:42:45.601Z,66.92
2023-03-21T10:45:17.522Z,66.37
2023-03-21T10:47:48.149Z,67.82
2023-03-21T10:50:17.519Z,66.30
2023-03-21T10:52:47.349Z,64.58
2023-03-21T10:55:21.350Z,64.21
2023-03-21T10:57:48.933Z,63.78
2023-03-21T11:00:21.690Z,63.53
2023-03-21T11:02:49.904Z,63.24
2023-03-21T11:05:20.902Z,63.71
2023-03-21T11:07:48.294Z,63.94
2023-03-21T11:10:19.925Z,62.45
2023-03-21T11:12:58.673Z,60.92
2023-03-21T11:15:28.631Z,59.78
2023-03-21T11:17:55.927Z,60.29
2023-03-21T11:20:23.718Z,63.38
2023-03-21T11:22:55.289Z,61.62
2023-03-21T11:25:23.967Z,62.34
2023-03-21T11:27:52.881Z,63.56
2023-03-21T11:30:23.235Z,62.61
2023-03-21T11:32:53.134Z,61.81
2023-03-21T11:35:21.925Z,60.83
2023-03-21T11:37:53.176Z,61.15
2023-03-21T11:40:21.638Z,61.23
2023-03-21T11:42:51.575Z,60.43
2023-03-21T11:45:20.152Z,61.84
2023-03-21T11:47:50.646Z,59.80
2023-03-21T11:50:19.325Z,59.64
2023-03-21T11:52:52.203Z,58.85
2023-03-21T11:55:24.238Z,59.19
2023-03-21T11:57:58.014Z,60.01
2023-03-21T12:00:30.575Z,61.63
2023-03-21T12:03:07.459Z,62.20
2023-03-21T12:05:36.441Z,61.96
2023-03-21T12:08:08.227Z,61.71
2023-03-21T12:10:39.087Z,61.07
2023-03-21T12:13:14.315Z,60.26
2023-03-21T12:15:44.457Z,60.29
2023-03-21T12:18:17.557Z,61.48
2023-03-21T12:20:47.589Z,62.00
2023-03-21T12:23:30.558Z,60.20
2023-03-21T12:26:04.725Z,59.89
2023-03-21T12:28:34.985Z,59.80
2023-03-21T12:31:08.387Z,60.17
2023-03-21T12:33:43.129Z,59.72
2023-03-21T12:36:18.421Z,60.07
2023-03-21T12:38:54.305Z,61.48
2023-03-21T12:41:24.128Z,61.59
2023-03-21T12:43:55.433Z,60.55
2023-03-21T12:46:25.260Z,59.13
2023-03-21T12:48:57.548Z,58.85
2023-03-21T12:51:27.324Z,59.89
2023-03-21T12:54:01.568Z,60.31
2023-03-21T12:56:31.482Z,59.34
2023-03-21T12:59:01.027Z,59.29
2023-03-21T13:01:29.457Z,58.78
2023-03-21T13:04:07.431Z,59.50
2023-03-21T13:06:36.577Z,60.92
2023-03-21T13:09:07.535Z,60.45
2023-03-21T13:11:35.290Z,60.78
2023-03-21T13:14:04.521Z,60.95
2023-03-21T13:16:34.543Z,61.71
2023-03-21T13:19:06.528Z,61.02
2023-03-21T13:21:41.005Z,61.10
2023-03-21T13:24:20.168Z,59.78
2023-03-21T13:26:50.804Z,60.03
2023-03-21T13:29:24.202Z,59.27
2023-03-21T13:31:55.212Z,59.71
2023-03-21T13:34:26.683Z,60.28
2023-03-21T13:36:54.172Z,58.31
2023-03-21T13:39:25.161Z,57.87
2023-03-21T13:41:53.233Z,59.69
2023-03-21T13:44:24.175Z,58.80
2023-03-21T13:46:56.988Z,57.94
2023-03-21T13:49:30.132Z,59.54
2023-03-21T13:51:58.423Z,59.77
2023-03-21T13:54:29.710Z,59.64
2023-03-21T13:57:00.966Z,58.43
2023-03-21T13:59:42.492Z,59.87
2023-03-21T14:02:29.058Z,58.75
2023-03-21T14:05:05.403Z,59.41
2023-03-21T14:07:34.662Z,59.38
2023-03-21T14:10:05.051Z,59.52
2023-03-21T14:12:37.721Z,58.11
2023-03-21T14:15:15.770Z,56.62
2023-03-21T14:17:50.335Z,58.24
2023-03-21T14:20:21.249Z,59.80
2023-03-21T14:22:48.918Z,58.71
2023-03-21T14:25:17.237Z,58.28
2023-03-21T14:27:46.583Z,58.36
2023-03-21T14:30:20.904Z,59.53
2023-03-21T14:32:48.573Z,59.43
2023-03-21T14:35:16.063Z,59.61
2023-03-21T14:37:46.257Z,59.00
2023-03-21T14:40:19.993Z,60.02
2023-03-21T14:42:48.182Z,61.24
2023-03-21T14:45:18.866Z,61.97
2023-03-21T14:47:55.407Z,62.67
2023-03-21T14:50:23.503Z,62.37
2023-03-21T14:52:53.735Z,62.21
2023-03-21T14:55:21.190Z,62.85
2023-03-21T14:57:49.358Z,63.05
2023-03-21T15:00:21.551Z,62.73
2023-03-21T15:02:48.927Z,63.03
2023-03-21T15:05:17.810Z,63.57
2023-03-21T15:07:53.042Z,63.51
2023-03-21T15:10:22.059Z,63.27
2023-03-21T15:12:53.101Z,62.95
2023-03-21T15:15:20.983Z,62.91
2023-03-21T15:17:48.420Z,63.66
2023-03-21T15:20:18.257Z,63.69
2023-03-21T15:22:46.793Z,63.75
2023-03-21T15:25:18.309Z,63.91
2023-03-21T15:27:47.115Z,63.71
2023-03-21T15:30:20.192Z,63.93
2023-03-21T15:32:48.559Z,63.88
2023-03-21T15:35:16.898Z,63.39
2023-03-21T15:37:44.269Z,63.50
2023-03-21T15:40:20.327Z,63.56
2023-03-21T15:42:48.958Z,63.17
2023-03-21T15:45:19.841Z,63.52
2023-03-21T15:47:54.817Z,63.51
2023-03-21T15:50:30.260Z,63.48
2023-03-21T15:53:00.201Z,63.60
2023-03-21T15:55:29.424Z,64.16
2023-03-21T15:58:00.944Z,63.71
2023-03-21T16:00:32.868Z,65.00
2023-03-21T16:03:04.861Z,65.33
2023-03-21T16:05:33.148Z,65.12
2023-03-21T16:08:03.740Z,64.61
2023-03-21T16:10:32.406Z,64.17
2023-03-21T16:13:01.060Z,64.31
2023-03-21T16:15:28.375Z,64.15
2023-03-21T16:17:57.485Z,63.55
2023-03-21T16:20:26.074Z,63.34
2023-03-21T16:22:53.335Z,62.54
2023-03-21T16:25:21.690Z,62.44
2023-03-21T16:27:49.589Z,61.88
2023-03-21T16:30:20.411Z,62.02
2023-03-21T16:32:47.774Z,61.37
2023-03-21T16:35:15.312Z,61.18
2023-03-21T16:37:42.890Z,61.20
2023-03-21T16:40:17.315Z,61.55
2023-03-21T16:42:45.465Z,62.03
2023-03-21T16:45:12.924Z,62.31
2023-03-21T16:47:41.576Z,62.16
2023-03-21T16:50:20.994Z,62.33
2023-03-21T16:52:48.368Z,62.26
2023-03-21T16:55:15.769Z,62.21
2023-03-21T16:57:44.002Z,62.75
2023-03-21T17:00:15.170Z,63.68
2023-03-21T17:02:43.920Z,64.38
2023-03-21T17:05:12.243Z,65.38
2023-03-21T17:07:39.624Z,65.89
2023-03-21T17:10:16.305Z,65.67
2023-03-21T17:12:43.652Z,65.34
2023-03-21T17:15:11.250Z,65.28
2023-03-21T17:17:38.507Z,65.21
2023-03-21T17:20:15.351Z,66.47
2023-03-21T17:22:42.615Z,66.54
2023-03-21T17:25:10.720Z,66.40
2023-03-21T17:27:38.350Z,66.14
2023-03-21T17:30:13.007Z,66.39
2023-03-21T17:32:40.303Z,66.31
2023-03-21T17:35:07.779Z,66.50
2023-03-21T17:37:38.436Z,67.29
2023-03-21T17:40:07.007Z,68.09
2023-03-21T17:42:34.641Z,68.24
2023-03-21T17:45:01.927Z,68.21
2023-03-21T17:47:30.939Z,69.10
2023-03-21T17:49:58.330Z,69.98
2023-03-21T17:52:27.206Z,69.38
2023-03-21T17:54:55.962Z,70.48
2023-03-21T17:57:23.301Z,70.64
2023-03-21T17:59:50.667Z,71.14
2023-03-21T18:02:18.307Z,70.49
2023-03-21T18:04:45.606Z,69.21
2023-03-21T18:07:18.462Z,69.25
2023-03-21T18:09:49.523Z,68.73
2023-03-21T18:12:18.137Z,69.21
2023-03-21T18:14:46.121Z,69.37
2023-03-21T18:17:13.520Z,69.80
2023-03-21T18:19:40.788Z,69.90
2023-03-21T18:22:08.197Z,69.88
2023-03-21T18:24:35.725Z,69.05
2023-03-21T18:27:02.989Z,68.42
2023-03-21T18:32:20.187Z,68.99
2023-03-21T18:34:49.160Z,68.93
2023-03-21T18:37:16.460Z,69.06
2023-03-21T18:39:45.230Z,68.52
2023-03-21T18:42:19.150Z,69.49
2023-03-21T18:44:52.169Z,69.28
2023-03-21T18:47:20.076Z,69.61
2023-03-21T18:50:13.586Z,70.43
2023-03-21T18:52:34.650Z,69.92
2023-03-21T18:55:02.686Z,69.87
2023-03-21T18:57:38.893Z,70.12
2023-03-21T19:00:13.192Z,70.44
2023-03-21T19:02:45.518Z,70.58
2023-03-21T19:05:14.768Z,70.89
2023-03-21T19:07:42.069Z,71.16
2023-03-21T19:10:18.159Z,71.51
2023-03-21T19:12:46.542Z,72.20
2023-03-21T19:15:17.681Z,72.26
2023-03-21T19:18:26.499Z,73.41
2023-03-21T19:20:32.299Z,74.06
2023-03-21T19:22:59.577Z,73.95
2023-03-21T19:25:27.133Z,73.38
2023-03-21T19:27:54.402Z,75.09
2023-03-21T19:30:23.030Z,76.19
2023-03-21T19:32:50.617Z,75.20
2023-03-21T19:35:18.689Z,75.12
2023-03-21T19:37:46.497Z,75.96
2023-03-21T19:40:14.275Z,77.00
2023-03-21T19:42:42.841Z,76.63
2023-03-21T19:45:11.141Z,77.05
2023-03-21T19:47:39.801Z,76.03
2023-03-21T19:52:55.578Z,76.37
2023-03-21T19:55:22.879Z,76.64
2023-03-21T19:57:50.537Z,77.41
2023-03-21T20:00:18.685Z,77.88
2023-03-21T20:02:47.430Z,77.73
2023-03-21T20:05:15.887Z,77.09
2023-03-21T20:07:43.159Z,76.76
2023-03-21T20:10:11.691Z,76.76
2023-03-21T20:12:39.327Z,77.06
2023-03-21T20:15:17.293Z,77.04
2023-03-21T20:17:48.491Z,77.23
2023-03-21T20:20:17.902Z,78.15
2023-03-21T20:25:33.652Z,79.50
2023-03-21T20:28:15.216Z,79.62
2023-03-21T20:30:47.087Z,78.55
2023-03-21T20:33:15.810Z,77.82
2023-03-21T20:36:29.465Z,78.65
2023-03-21T20:38:31.280Z,78.48
2023-03-21T20:40:58.556Z,79.02
2023-03-21T20:44:20.405Z,78.68
2023-03-21T20:46:15.714Z,78.96
2023-03-21T20:48:48.829Z,79.87
2023-03-21T20:52:36.853Z,79.93
2023-03-21T20:54:04.784Z,81.11
2023-03-21T20:56:32.081Z,80.33
2023-03-21T20:59:14.968Z,80.13
2023-03-21T21:01:45.335Z,80.57
2023-03-21T21:04:19.220Z,79.72
2023-03-21T21:06:46.674Z,80.96
2023-03-21T21:09:13.937Z,79.81
2023-03-21T21:14:28.693Z,79.22
2023-03-21T21:16:55.993Z,78.75
2023-03-21T21:19:24.587Z,78.48
2023-03-21T21:21:51.839Z,79.19
2023-03-21T21:24:19.081Z,79.03
2023-03-21T21:26:46.829Z,80.32
2023-03-21T21:29:16.605Z,79.69
2023-03-21T21:31:44.489Z,79.95
2023-03-21T21:34:11.784Z,80.15
2023-03-21T21:36:40.477Z,80.64
2023-03-21T21:39:08.627Z,80.81
2023-03-21T21:41:36.598Z,81.10
2023-03-21T21:44:03.895Z,81.45
2023-03-21T21:46:31.557Z,82.67
2023-03-21T21:48:59.626Z,82.16
2023-03-21T21:51:27.101Z,82.26
2023-03-21T21:53:56.135Z,81.09
2023-03-21T21:56:24.207Z,80.51
2023-03-21T21:58:52.094Z,80.27
2023-03-21T22:01:20.651Z,80.17
2023-03-21T22:03:47.968Z,80.37
2023-03-21T22:06:15.970Z,80.09
2023-03-21T22:08:46.755Z,79.55
2023-03-21T22:11:15.924Z,78.96
2023-03-21T22:13:44.449Z,78.85
2023-03-21T22:16:12.037Z,79.37
2023-03-21T22:18:39.423Z,79.19
2023-03-21T22:21:07.130Z,79.48
2023-03-21T22:23:34.463Z,80.96
2023-03-21T22:26:01.926Z,81.71
2023-03-21T22:28:31.267Z,82.00
2023-03-21T22:30:58.549Z,83.61
2023-03-21T22:33:25.805Z,84.57
2023-03-21T22:35:53.557Z,84.22
2023-03-21T22:38:24.170Z,85.77
2023-03-21T22:40:54.838Z,88.30
2023-03-21T22:43:22.116Z,88.26
2023-03-21T22:45:50.887Z,89.55
2023-03-21T22:48:18.208Z,89.16
2023-03-21T22:50:45.805Z,90.71
2023-03-21T22:53:13.078Z,90.58
2023-03-21T22:55:40.434Z,90.53
2023-03-21T22:58:07.749Z,90.25
2023-03-21T23:00:35.012Z,90.33
2023-03-21T23:03:03.611Z,90.72
2023-03-21T23:05:30.900Z,91.15
2023-03-21T23:07:58.182Z,90.72
2023-03-21T23:10:25.525Z,91.39
2023-03-21T23:12:52.857Z,92.39
2023-03-21T23:15:20.168Z,92.53
2023-03-21T23:17:47.936Z,93.07
2023-03-21T23:20:16.724Z,93.61
2023-03-21T23:22:44.021Z,94.49
2023-03-21T23:25:11.889Z,96.08
2023-03-21T23:27:39.179Z,95.52
2023-03-21T23:30:07.238Z,94.97
2023-03-21T23:32:34.640Z,94.51
2023-03-21T23:35:01.947Z,94.63
2023-03-21T23:37:32.682Z,95.57
2023-03-21T23:39:59.976Z,96.25
2023-03-21T23:42:29.501Z,96.85
2023-03-21T23:44:57.086Z,97.60
2023-03-21T23:47:24.437Z,96.23
2023-03-21T23:49:52.801Z,95.71
2023-03-21T23:52:20.235Z,96.30
2023-03-21T23:54:48.831Z,97.66
2023-03-21T23:57:17.190Z,97.84
2023-03-21T23:59:46.568Z,96.77
